sensor_id;sensor_type;location;lat;lon;timestamp;pressure;altitude;pressure_sealevel;temperature;humidity
71457;BME280;59263;48.160;11.752;2023-12-07T00:01:21;96177.38;;;0.69;100.00
71457;BME280;59263;48.160;11.752;2023-12-07T00:03:46;96186.69;;;0.70;100.00
71457;BME280;59263;48.160;11.752;2023-12-07T00:06:12;96185.75;;;0.54;100.00
71457;BME280;59263;48.160;11.752;2023-12-07T00:08:37;96188.53;;;0.50;100.00
71457;BME280;59263;48.160;11.752;2023-12-07T00:11:03;96201.09;;;0.35;100.00
71457;BME280;59263;48.160;11.752;2023-12-07T00:13:28;96203.19;;;0.44;100.00
71457;BME280;59263;48.160;11.752;2023-12-07T00:15:53;96198.09;;;0.44;100.00
71457;BME280;59263;48.160;11.752;2023-12-07T00:18:19;96212.53;;;0.27;100.00
71457;BME280;59263;48.160;11.752;2023-12-07T00:20:44;96209.34;;;0.21;100.00
71457;BME280;59263;48.160;11.752;2023-12-07T00:23:10;96216.16;;;0.02;100.00
71457;BME280;59263;48.160;11.752;2023-12-07T00:25:35;96216.78;;;0.07;100.00
71457;BME280;59263;48.160;11.752;2023-12-07T00:28:00;96214.88;;;0.12;100.00
71457;BME280;59263;48.160;11.752;2023-12-07T00:30:26;96218.44;;;0.08;100.00
71457;BME280;59263;48.160;11.752;2023-12-07T00:32:51;96217.91;;;0.02;100.00
71457;BME280;59263;48.160;11.752;2023-12-07T00:35:16;96219.28;;;-0.10;100.00
71457;BME280;59263;48.160;11.752;2023-12-07T00:37:43;96225.53;;;-0.17;100.00
71457;BME280;59263;48.160;11.752;2023-12-07T00:40:08;96234.75;;;-0.15;100.00
71457;BME280;59263;48.160;11.752;2023-12-07T00:42:34;96229.84;;;-0.19;100.00
71457;BME280;59263;48.160;11.752;2023-12-07T00:45:02;96230.03;;;-0.24;100.00
71457;BME280;59263;48.160;11.752;2023-12-07T00:47:27;96221.88;;;-0.12;100.00
71457;BME280;59263;48.160;11.752;2023-12-07T00:49:53;96215.28;;;0.03;100.00
71457;BME280;59263;48.160;11.752;2023-12-07T00:52:18;96219.88;;;-0.05;100.00
71457;BME280;59263;48.160;11.752;2023-12-07T00:54:43;96215.47;;;-0.02;100.00
71457;BME280;59263;48.160;11.752;2023-12-07T00:57:09;96218.16;;;-0.05;100.00
71457;BME280;59263;48.160;11.752;2023-12-07T00:59:34;96231.66;;;-0.03;100.00
71457;BME280;59263;48.160;11.752;2023-12-07T01:02:03;96212.38;;;-0.08;100.00
71457;BME280;59263;48.160;11.752;2023-12-07T01:04:30;96224.75;;;-0.01;100.00
71457;BME280;59263;48.160;11.752;2023-12-07T01:06:56;96223.38;;;-0.08;100.00
71457;BME280;59263;48.160;11.752;2023-12-07T01:09:21;96232.00;;;-0.10;100.00
71457;BME280;59263;48.160;11.752;2023-12-07T01:11:47;96241.88;;;-0.04;100.00
71457;BME280;59263;48.160;11.752;2023-12-07T01:14:13;96241.94;;;-0.06;100.00
71457;BME280;59263;48.160;11.752;2023-12-07T01:16:38;96235.63;;;-0.16;100.00
71457;BME280;59263;48.160;11.752;2023-12-07T01:19:04;96245.16;;;-0.21;100.00
71457;BME280;59263;48.160;11.752;2023-12-07T01:21:29;96252.34;;;-0.31;100.00
71457;BME280;59263;48.160;11.752;2023-12-07T01:23:55;96263.34;;;-0.30;100.00
71457;BME280;59263;48.160;11.752;2023-12-07T01:26:20;96263.06;;;-0.43;100.00
71457;BME280;59263;48.160;11.752;2023-12-07T01:28:46;96264.00;;;-0.45;100.00
71457;BME280;59263;48.160;11.752;2023-12-07T01:31:11;96266.88;;;-0.53;100.00
71457;BME280;59263;48.160;11.752;2023-12-07T01:33:36;96261.78;;;-0.53;100.00
71457;BME280;59263;48.160;11.752;2023-12-07T01:36:02;96255.22;;;-0.38;100.00
71457;BME280;59263;48.160;11.752;2023-12-07T01:38:27;96266.06;;;-0.54;100.00
71457;BME280;59263;48.160;11.752;2023-12-07T01:40:53;96269.09;;;-0.45;100.00
71457;BME280;59263;48.160;11.752;2023-12-07T01:43:19;96275.66;;;-0.40;100.00
71457;BME280;59263;48.160;11.752;2023-12-07T01:45:46;96247.81;;;-0.63;100.00
71457;BME280;59263;48.160;11.752;2023-12-07T01:48:12;96267.41;;;-0.65;100.00
71457;BME280;59263;48.160;11.752;2023-12-07T01:50:38;96286.94;;;-0.67;100.00
71457;BME280;59263;48.160;11.752;2023-12-07T01:53:04;96270.69;;;-0.63;100.00
71457;BME280;59263;48.160;11.752;2023-12-07T01:55:31;96280.72;;;-0.60;100.00
71457;BME280;59263;48.160;11.752;2023-12-07T01:57:57;96282.25;;;-0.56;100.00
71457;BME280;59263;48.160;11.752;2023-12-07T02:00:23;96290.03;;;-0.59;100.00
71457;BME280;59263;48.160;11.752;2023-12-07T02:02:50;96292.03;;;-0.67;100.00
71457;BME280;59263;48.160;11.752;2023-12-07T02:05:16;96292.94;;;-0.68;100.00
71457;BME280;59263;48.160;11.752;2023-12-07T02:07:42;96295.97;;;-0.60;100.00
71457;BME280;59263;48.160;11.752;2023-12-07T02:10:08;96292.16;;;-0.70;100.00
71457;BME280;59263;48.160;11.752;2023-12-07T02:12:33;96293.44;;;-0.81;100.00
71457;BME280;59263;48.160;11.752;2023-12-07T02:15:01;96302.97;;;-0.65;100.00
71457;BME280;59263;48.160;11.752;2023-12-07T02:17:33;96288.72;;;-0.90;100.00
71457;BME280;59263;48.160;11.752;2023-12-07T02:20:06;96302.78;;;-0.81;100.00
71457;BME280;59263;48.160;11.752;2023-12-07T02:22:46;96289.28;;;-0.83;100.00
71457;BME280;59263;48.160;11.752;2023-12-07T02:25:14;96299.00;;;-0.93;100.00
71457;BME280;59263;48.160;11.752;2023-12-07T02:27:43;96297.22;;;-0.91;100.00
71457;BME280;59263;48.160;11.752;2023-12-07T02:30:11;96312.22;;;-0.85;100.00
71457;BME280;59263;48.160;11.752;2023-12-07T02:32:41;96305.63;;;-0.89;100.00
71457;BME280;59263;48.160;11.752;2023-12-07T02:35:08;96304.25;;;-0.98;100.00
71457;BME280;59263;48.160;11.752;2023-12-07T02:37:50;96314.94;;;-0.89;100.00
71457;BME280;59263;48.160;11.752;2023-12-07T02:40:19;96320.03;;;-1.11;100.00
71457;BME280;59263;48.160;11.752;2023-12-07T02:42:46;96316.97;;;-1.19;100.00
71457;BME280;59263;48.160;11.752;2023-12-07T02:45:12;96317.63;;;-1.14;100.00
71457;BME280;59263;48.160;11.752;2023-12-07T02:47:38;96317.63;;;-1.14;100.00
71457;BME280;59263;48.160;11.752;2023-12-07T02:50:05;96319.47;;;-1.18;100.00
71457;BME280;59263;48.160;11.752;2023-12-07T02:52:31;96324.75;;;-1.02;100.00
71457;BME280;59263;48.160;11.752;2023-12-07T02:54:56;96316.75;;;-1.13;100.00
71457;BME280;59263;48.160;11.752;2023-12-07T02:57:22;96323.13;;;-1.03;100.00
71457;BME280;59263;48.160;11.752;2023-12-07T02:59:47;96320.47;;;-1.00;100.00
71457;BME280;59263;48.160;11.752;2023-12-07T03:02:13;96316.63;;;-1.10;100.00
71457;BME280;59263;48.160;11.752;2023-12-07T03:04:38;96328.66;;;-1.15;100.00
71457;BME280;59263;48.160;11.752;2023-12-07T03:07:04;96308.59;;;-1.22;100.00
71457;BME280;59263;48.160;11.752;2023-12-07T03:09:30;96310.63;;;-1.30;100.00
71457;BME280;59263;48.160;11.752;2023-12-07T03:11:55;96314.13;;;-1.34;100.00
71457;BME280;59263;48.160;11.752;2023-12-07T03:14:20;96317.56;;;-1.13;100.00
71457;BME280;59263;48.160;11.752;2023-12-07T03:16:46;96329.38;;;-1.12;100.00
71457;BME280;59263;48.160;11.752;2023-12-07T03:19:11;96324.75;;;-1.02;100.00
71457;BME280;59263;48.160;11.752;2023-12-07T03:21:40;96323.81;;;-1.00;100.00
71457;BME280;59263;48.160;11.752;2023-12-07T03:24:07;96317.53;;;-0.91;100.00
71457;BME280;59263;48.160;11.752;2023-12-07T03:26:36;96317.03;;;-0.99;100.00
71457;BME280;59263;48.160;11.752;2023-12-07T03:29:01;96321.69;;;-0.88;100.00
71457;BME280;59263;48.160;11.752;2023-12-07T03:31:27;96326.88;;;-0.91;100.00
71457;BME280;59263;48.160;11.752;2023-12-07T03:33:54;96316.06;;;-0.97;100.00
71457;BME280;59263;48.160;11.752;2023-12-07T03:36:19;96306.41;;;-1.09;100.00
71457;BME280;59263;48.160;11.752;2023-12-07T03:38:45;96306.78;;;-0.98;100.00
71457;BME280;59263;48.160;11.752;2023-12-07T03:41:10;96339.50;;;-0.90;100.00
71457;BME280;59263;48.160;11.752;2023-12-07T03:43:35;96335.63;;;-0.99;100.00
71457;BME280;59263;48.160;11.752;2023-12-07T03:46:04;96345.78;;;-0.99;100.00
71457;BME280;59263;48.160;11.752;2023-12-07T03:48:29;96331.59;;;-1.04;100.00
71457;BME280;59263;48.160;11.752;2023-12-07T03:50:55;96328.31;;;-1.06;100.00
71457;BME280;59263;48.160;11.752;2023-12-07T03:53:20;96343.31;;;-1.00;100.00
71457;BME280;59263;48.160;11.752;2023-12-07T03:55:45;96325.00;;;-1.08;100.00
71457;BME280;59263;48.160;11.752;2023-12-07T03:58:11;96339.28;;;-1.06;100.00
71457;BME280;59263;48.160;11.752;2023-12-07T04:00:38;96344.47;;;-0.87;100.00
71457;BME280;59263;48.160;11.752;2023-12-07T04:03:03;96348.66;;;-0.86;100.00
71457;BME280;59263;48.160;11.752;2023-12-07T04:05:29;96350.72;;;-0.74;100.00
71457;BME280;59263;48.160;11.752;2023-12-07T04:07:54;96343.63;;;-0.65;100.00
71457;BME280;59263;48.160;11.752;2023-12-07T04:10:19;96338.53;;;-0.65;100.00
71457;BME280;59263;48.160;11.752;2023-12-07T04:12:45;96346.09;;;-0.64;100.00
71457;BME280;59263;48.160;11.752;2023-12-07T04:15:10;96356.59;;;-0.51;100.00
71457;BME280;59263;48.160;11.752;2023-12-07T04:17:35;96351.63;;;-0.54;100.00
71457;BME280;59263;48.160;11.752;2023-12-07T04:20:01;96353.59;;;-0.61;100.00
71457;BME280;59263;48.160;11.752;2023-12-07T04:22:26;96357.06;;;-0.63;100.00
71457;BME280;59263;48.160;11.752;2023-12-07T04:24:51;96339.47;;;-0.68;100.00
71457;BME280;59263;48.160;11.752;2023-12-07T04:27:17;96358.28;;;-0.72;100.00
71457;BME280;59263;48.160;11.752;2023-12-07T04:29:42;96364.56;;;-0.81;100.00
71457;BME280;59263;48.160;11.752;2023-12-07T04:32:07;96343.31;;;-1.00;100.00
71457;BME280;59263;48.160;11.752;2023-12-07T04:34:33;96352.88;;;-0.85;100.00
71457;BME280;59263;48.160;11.752;2023-12-07T04:36:59;96361.00;;;-0.77;100.00
71457;BME280;59263;48.160;11.752;2023-12-07T04:39:24;96367.22;;;-0.84;100.00
71457;BME280;59263;48.160;11.752;2023-12-07T04:41:49;96363.66;;;-0.80;100.00
71457;BME280;59263;48.160;11.752;2023-12-07T04:44:15;96347.53;;;-0.79;100.00
71457;BME280;59263;48.160;11.752;2023-12-07T04:46:41;96351.97;;;-0.84;100.00
71457;BME280;59263;48.160;11.752;2023-12-07T04:49:07;96359.78;;;-0.88;100.00
71457;BME280;59263;48.160;11.752;2023-12-07T04:51:32;96373.53;;;-0.94;100.00
71457;BME280;59263;48.160;11.752;2023-12-07T04:53:57;96382.63;;;-1.10;100.00
71457;BME280;59263;48.160;11.752;2023-12-07T04:56:23;96389.91;;;-1.01;100.00
71457;BME280;59263;48.160;11.752;2023-12-07T04:58:48;96377.97;;;-0.99;100.00
71457;BME280;59263;48.160;11.752;2023-12-07T05:01:14;96377.31;;;-1.04;100.00
71457;BME280;59263;48.160;11.752;2023-12-07T05:03:39;96381.22;;;-0.95;100.00
71457;BME280;59263;48.160;11.752;2023-12-07T05:06:04;96382.28;;;-1.01;100.00
71457;BME280;59263;48.160;11.752;2023-12-07T05:08:30;96389.72;;;-0.97;100.00
71457;BME280;59263;48.160;11.752;2023-12-07T05:10:57;96374.91;;;-1.07;100.00
71457;BME280;59263;48.160;11.752;2023-12-07T05:13:22;96387.34;;;-1.01;100.00
71457;BME280;59263;48.160;11.752;2023-12-07T05:15:47;96380.00;;;-1.31;100.00
71457;BME280;59263;48.160;11.752;2023-12-07T05:18:13;96364.59;;;-1.48;100.00
71457;BME280;59263;48.160;11.752;2023-12-07T05:20:38;96389.84;;;-1.22;100.00
71457;BME280;59263;48.160;11.752;2023-12-07T05:23:04;96379.69;;;-1.22;100.00
71457;BME280;59263;48.160;11.752;2023-12-07T05:25:31;96368.69;;;-1.44;100.00
71457;BME280;59263;48.160;11.752;2023-12-07T05:27:57;96372.63;;;-1.37;100.00
71457;BME280;59263;48.160;11.752;2023-12-07T05:30:23;96390.59;;;-1.19;100.00
71457;BME280;59263;48.160;11.752;2023-12-07T05:32:48;96366.66;;;-1.36;100.00
71457;BME280;59263;48.160;11.752;2023-12-07T05:35:13;96366.25;;;-1.47;100.00
71457;BME280;59263;48.160;11.752;2023-12-07T05:37:39;96376.78;;;-1.58;100.00
71457;BME280;59263;48.160;11.752;2023-12-07T05:40:04;96383.56;;;-1.58;100.00
71457;BME280;59263;48.160;11.752;2023-12-07T05:42:31;96380.69;;;-1.49;100.00
71457;BME280;59263;48.160;11.752;2023-12-07T05:44:56;96378.47;;;-1.35;100.00
71457;BME280;59263;48.160;11.752;2023-12-07T05:47:22;96379.25;;;-1.56;100.00
71457;BME280;59263;48.160;11.752;2023-12-07T05:49:48;96387.84;;;-1.60;100.00
71457;BME280;59263;48.160;11.752;2023-12-07T05:52:13;96382.25;;;-1.68;100.00
71457;BME280;59263;48.160;11.752;2023-12-07T05:54:39;96380.53;;;-1.68;100.00
71457;BME280;59263;48.160;11.752;2023-12-07T05:57:07;96381.47;;;-1.71;100.00
71457;BME280;59263;48.160;11.752;2023-12-07T05:59:36;96376.13;;;-1.63;100.00
71457;BME280;59263;48.160;11.752;2023-12-07T06:02:02;96381.78;;;-1.80;100.00
71457;BME280;59263;48.160;11.752;2023-12-07T06:04:28;96367.13;;;-1.95;100.00
71457;BME280;59263;48.160;11.752;2023-12-07T06:06:54;96373.28;;;-2.02;100.00
71457;BME280;59263;48.160;11.752;2023-12-07T06:09:19;96366.13;;;-1.91;100.00
71457;BME280;59263;48.160;11.752;2023-12-07T06:11:45;96367.31;;;-2.01;100.00
71457;BME280;59263;48.160;11.752;2023-12-07T06:14:10;96377.47;;;-2.01;100.00
71457;BME280;59263;48.160;11.752;2023-12-07T06:16:36;96379.00;;;-1.97;100.00
71457;BME280;59263;48.160;11.752;2023-12-07T06:19:02;96370.09;;;-1.84;100.00
71457;BME280;59263;48.160;11.752;2023-12-07T06:21:28;96365.78;;;-1.82;100.00
71457;BME280;59263;48.160;11.752;2023-12-07T06:23:55;96382.16;;;-1.90;100.00
71457;BME280;59263;48.160;11.752;2023-12-07T06:26:20;96376.44;;;-1.96;100.00
71457;BME280;59263;48.160;11.752;2023-12-07T06:28:46;96378.50;;;-2.07;100.00
71457;BME280;59263;48.160;11.752;2023-12-07T06:31:11;96386.06;;;-2.05;100.00
71457;BME280;59263;48.160;11.752;2023-12-07T06:33:37;96379.28;;;-2.05;100.00
71457;BME280;59263;48.160;11.752;2023-12-07T06:36:03;96371.66;;;-2.05;100.00
71457;BME280;59263;48.160;11.752;2023-12-07T06:38:29;96385.16;;;-2.04;100.00
71457;BME280;59263;48.160;11.752;2023-12-07T06:40:54;96377.16;;;-1.92;100.00
71457;BME280;59263;48.160;11.752;2023-12-07T06:43:21;96388.84;;;-1.88;100.00
71457;BME280;59263;48.160;11.752;2023-12-07T06:45:47;96393.47;;;-1.99;100.00
71457;BME280;59263;48.160;11.752;2023-12-07T06:48:13;96382.97;;;-2.13;100.00
71457;BME280;59263;48.160;11.752;2023-12-07T06:50:40;96386.16;;;-2.08;100.00
71457;BME280;59263;48.160;11.752;2023-12-07T06:53:05;96381.50;;;-2.21;100.00
71457;BME280;59263;48.160;11.752;2023-12-07T06:55:30;96384.91;;;-1.97;100.00
71457;BME280;59263;48.160;11.752;2023-12-07T06:57:56;96396.19;;;-2.05;100.00
71457;BME280;59263;48.160;11.752;2023-12-07T07:00:22;96393.09;;;-2.13;100.00
71457;BME280;59263;48.160;11.752;2023-12-07T07:02:47;96398.16;;;-2.13;100.00
71457;BME280;59263;48.160;11.752;2023-12-07T07:05:13;96399.06;;;-2.14;100.00
71457;BME280;59263;48.160;11.752;2023-12-07T07:07:38;96400.63;;;-2.12;100.00
71457;BME280;59263;48.160;11.752;2023-12-07T07:10:04;96404.00;;;-1.86;100.00
71457;BME280;59263;48.160;11.752;2023-12-07T07:12:30;96392.31;;;-1.67;100.00
71457;BME280;59263;48.160;11.752;2023-12-07T07:14:55;96404.19;;;-1.67;100.00
71457;BME280;59263;48.160;11.752;2023-12-07T07:17:21;96405.06;;;-1.68;100.00
71457;BME280;59263;48.160;11.752;2023-12-07T07:19:46;96395.63;;;-1.88;100.00
71457;BME280;59263;48.160;11.752;2023-12-07T07:22:12;96392.38;;;-1.92;100.00
71457;BME280;59263;48.160;11.752;2023-12-07T07:24:37;96395.00;;;-1.95;100.00
71457;BME280;59263;48.160;11.752;2023-12-07T07:27:03;96395.03;;;-1.97;100.00
71457;BME280;59263;48.160;11.752;2023-12-07T07:29:28;96404.97;;;-1.90;100.00
71457;BME280;59263;48.160;11.752;2023-12-07T07:31:54;96400.53;;;-1.84;100.00
71457;BME280;59263;48.160;11.752;2023-12-07T07:34:19;96392.56;;;-1.98;100.00
71457;BME280;59263;48.160;11.752;2023-12-07T07:36:44;96404.97;;;-1.90;100.00
71457;BME280;59263;48.160;11.752;2023-12-07T07:39:10;96411.06;;;-1.71;100.00
71457;BME280;59263;48.160;11.752;2023-12-07T07:41:38;96395.59;;;-1.40;100.00
71457;BME280;59263;48.160;11.752;2023-12-07T07:44:04;96400.78;;;-1.43;100.00
71457;BME280;59263;48.160;11.752;2023-12-07T07:46:29;96402.75;;;-1.51;100.00
71457;BME280;59263;48.160;11.752;2023-12-07T07:48:55;96402.09;;;-1.33;100.00
71457;BME280;59263;48.160;11.752;2023-12-07T07:51:20;96416.53;;;-1.35;100.00
71457;BME280;59263;48.160;11.752;2023-12-07T07:53:45;96414.47;;;-1.47;100.00
71457;BME280;59263;48.160;11.752;2023-12-07T07:56:11;96408.59;;;-1.49;100.00
71457;BME280;59263;48.160;11.752;2023-12-07T07:58:36;96409.00;;;-1.36;100.00
71457;BME280;59263;48.160;11.752;2023-12-07T08:01:02;96404.19;;;-1.44;100.00
71457;BME280;59263;48.160;11.752;2023-12-07T08:03:27;96397.59;;;-1.48;100.00
71457;BME280;59263;48.160;11.752;2023-12-07T08:05:52;96404.41;;;-1.50;100.00
71457;BME280;59263;48.160;11.752;2023-12-07T08:08:18;96405.94;;;-1.46;100.00
71457;BME280;59263;48.160;11.752;2023-12-07T08:10:43;96408.94;;;-1.35;100.00
71457;BME280;59263;48.160;11.752;2023-12-07T08:13:08;96402.47;;;-0.98;100.00
71457;BME280;59263;48.160;11.752;2023-12-07T08:15:34;96398.63;;;-1.08;100.00
71457;BME280;59263;48.160;11.752;2023-12-07T08:18:00;96401.53;;;-1.17;100.00
71457;BME280;59263;48.160;11.752;2023-12-07T08:20:25;96414.44;;;-1.00;100.00
71457;BME280;59263;48.160;11.752;2023-12-07T08:22:51;96415.06;;;-0.95;100.00
71457;BME280;59263;48.160;11.752;2023-12-07T08:25:16;96410.03;;;-0.75;100.00
71457;BME280;59263;48.160;11.752;2023-12-07T08:27:42;96402.28;;;-0.71;100.00
71457;BME280;59263;48.160;11.752;2023-12-07T08:30:10;96415.41;;;-0.60;100.00
71457;BME280;59263;48.160;11.752;2023-12-07T08:32:36;96398.44;;;-0.60;100.00
71457;BME280;59263;48.160;11.752;2023-12-07T08:35:02;96413.22;;;-0.47;100.00
71457;BME280;59263;48.160;11.752;2023-12-07T08:37:28;96399.44;;;-0.42;100.00
71457;BME280;59263;48.160;11.752;2023-12-07T08:39:54;96402.47;;;-0.54;100.00
71457;BME280;59263;48.160;11.752;2023-12-07T08:42:19;96392.88;;;-0.47;100.00
71457;BME280;59263;48.160;11.752;2023-12-07T08:44:44;96390.47;;;-0.30;100.00
71457;BME280;59263;48.160;11.752;2023-12-07T08:47:10;96390.44;;;-0.29;100.00
71457;BME280;59263;48.160;11.752;2023-12-07T08:49:35;96390.16;;;-0.22;100.00
71457;BME280;59263;48.160;11.752;2023-12-07T08:52:01;96381.44;;;0.04;100.00
71457;BME280;59263;48.160;11.752;2023-12-07T08:54:27;96378.13;;;-0.19;100.00
71457;BME280;59263;48.160;11.752;2023-12-07T08:56:52;96379.47;;;0.10;100.00
71457;BME280;59263;48.160;11.752;2023-12-07T08:59:18;96371.69;;;0.13;100.00
71457;BME280;59263;48.160;11.752;2023-12-07T09:01:43;96361.03;;;0.05;100.00
71457;BME280;59263;48.160;11.752;2023-12-07T09:04:09;96375.72;;;-0.02;100.00
71457;BME280;59263;48.160;11.752;2023-12-07T09:06:36;96372.97;;;0.03;100.00
71457;BME280;59263;48.160;11.752;2023-12-07T09:09:02;96352.75;;;0.20;100.00
71457;BME280;59263;48.160;11.752;2023-12-07T09:11:29;96364.91;;;0.33;100.00
71457;BME280;59263;48.160;11.752;2023-12-07T09:13:54;96347.63;;;0.41;100.00
71457;BME280;59263;48.160;11.752;2023-12-07T09:16:20;96353.38;;;0.44;100.00
71457;BME280;59263;48.160;11.752;2023-12-07T09:18:46;96353.66;;;0.57;100.00
71457;BME280;59263;48.160;11.752;2023-12-07T09:21:11;96336.31;;;0.65;100.00
71457;BME280;59263;48.160;11.752;2023-12-07T09:23:37;96311.31;;;0.73;100.00
71457;BME280;59263;48.160;11.752;2023-12-07T09:26:03;96339.50;;;0.70;100.00
71457;BME280;59263;48.160;11.752;2023-12-07T09:28:28;96347.59;;;0.79;100.00
71457;BME280;59263;48.160;11.752;2023-12-07T09:30:54;96345.78;;;0.81;100.00
71457;BME280;59263;48.160;11.752;2023-12-07T09:33:19;96336.78;;;0.73;100.00
71457;BME280;59263;48.160;11.752;2023-12-07T09:35:45;96326.91;;;0.85;100.00
71457;BME280;59263;48.160;11.752;2023-12-07T09:38:10;96322.31;;;1.10;100.00
71457;BME280;59263;48.160;11.752;2023-12-07T09:40:35;96334.88;;;0.96;100.00
71457;BME280;59263;48.160;11.752;2023-12-07T09:43:01;96330.50;;;0.81;100.00
71457;BME280;59263;48.160;11.752;2023-12-07T09:45:27;96339.97;;;0.79;100.00
71457;BME280;59263;48.160;11.752;2023-12-07T09:47:53;96342.06;;;0.88;100.00
71457;BME280;59263;48.160;11.752;2023-12-07T09:50:23;96329.91;;;1.12;100.00
71457;BME280;59263;48.160;11.752;2023-12-07T09:52:50;96327.66;;;1.06;100.00
71457;BME280;59263;48.160;11.752;2023-12-07T09:55:19;96316.19;;;0.97;100.00
71457;BME280;59263;48.160;11.752;2023-12-07T09:57:46;96328.00;;;0.98;100.00
71457;BME280;59263;48.160;11.752;2023-12-07T10:00:12;96303.22;;;1.36;100.00
71457;BME280;59263;48.160;11.752;2023-12-07T10:02:40;96301.31;;;1.41;100.00
71457;BME280;59263;48.160;11.752;2023-12-07T10:05:07;96298.28;;;1.33;100.00
71457;BME280;59263;48.160;11.752;2023-12-07T10:07:45;96300.38;;;1.25;100.00
71457;BME280;59263;48.160;11.752;2023-12-07T10:10:12;96293.56;;;1.43;100.00
71457;BME280;59263;48.160;11.752;2023-12-07T10:12:48;96278.69;;;1.51;100.00
71457;BME280;59263;48.160;11.752;2023-12-07T10:15:17;96271.38;;;1.45;100.00
71457;BME280;59263;48.160;11.752;2023-12-07T10:17:53;96281.47;;;1.64;100.00
71457;BME280;59263;48.160;11.752;2023-12-07T10:20:20;96275.72;;;1.60;100.00
71457;BME280;59263;48.160;11.752;2023-12-07T10:23:01;96274.38;;;1.53;100.00
71457;BME280;59263;48.160;11.752;2023-12-07T10:25:36;96264.47;;;1.47;100.00
71457;BME280;59263;48.160;11.752;2023-12-07T10:28:02;96264.59;;;1.61;100.00
71457;BME280;59263;48.160;11.752;2023-12-07T10:30:32;96280.59;;;1.98;100.00
71457;BME280;59263;48.160;11.752;2023-12-07T10:32:57;96258.84;;;1.91;100.00
71457;BME280;59263;48.160;11.752;2023-12-07T10:35:23;96257.19;;;1.90;100.00
71457;BME280;59263;48.160;11.752;2023-12-07T10:37:48;96260.84;;;2.02;100.00
71457;BME280;59263;48.160;11.752;2023-12-07T10:40:14;96256.19;;;1.92;100.00
71457;BME280;59263;48.160;11.752;2023-12-07T10:42:41;96255.91;;;1.81;100.00
71457;BME280;59263;48.160;11.752;2023-12-07T10:45:07;96259.53;;;1.77;100.00
71457;BME280;59263;48.160;11.752;2023-12-07T10:47:38;96236.56;;;1.77;100.00
71457;BME280;59263;48.160;11.752;2023-12-07T10:50:07;96232.88;;;2.16;100.00
71457;BME280;59263;48.160;11.752;2023-12-07T10:52:59;96236.63;;;2.40;100.00
71457;BME280;59263;48.160;11.752;2023-12-07T10:55:29;96230.47;;;2.29;100.00
71457;BME280;59263;48.160;11.752;2023-12-07T10:57:58;96225.16;;;2.00;100.00
71457;BME280;59263;48.160;11.752;2023-12-07T11:00:25;96237.47;;;2.09;100.00
71457;BME280;59263;48.160;11.752;2023-12-07T11:02:53;96227.91;;;1.97;100.00
71457;BME280;59263;48.160;11.752;2023-12-07T11:05:19;96228.38;;;2.04;100.00
71457;BME280;59263;48.160;11.752;2023-12-07T11:08:06;96217.19;;;2.06;100.00
71457;BME280;59263;48.160;11.752;2023-12-07T11:14:01;96218.22;;;2.20;100.00
71457;BME280;59263;48.160;11.752;2023-12-07T11:16:38;96220.00;;;2.02;100.00
71457;BME280;59263;48.160;11.752;2023-12-07T11:19:05;96232.81;;;2.00;100.00
71457;BME280;59263;48.160;11.752;2023-12-07T11:21:30;96229.41;;;2.01;100.00
71457;BME280;59263;48.160;11.752;2023-12-07T11:23:59;96219.03;;;2.04;100.00
71457;BME280;59263;48.160;11.752;2023-12-07T11:26:25;96216.69;;;2.00;100.00
71457;BME280;59263;48.160;11.752;2023-12-07T11:28:51;96213.47;;;1.96;100.00
71457;BME280;59263;48.160;11.752;2023-12-07T11:31:16;96221.13;;;1.96;100.00
71457;BME280;59263;48.160;11.752;2023-12-07T11:33:42;96222.00;;;1.97;100.00
71457;BME280;59263;48.160;11.752;2023-12-07T11:36:10;96222.72;;;1.99;100.00
71457;BME280;59263;48.160;11.752;2023-12-07T11:38:38;96223.47;;;2.01;100.00
71457;BME280;59263;48.160;11.752;2023-12-07T11:41:03;96203.38;;;1.94;100.00
71457;BME280;59263;48.160;11.752;2023-12-07T11:45:57;96202.66;;;2.08;100.00
71457;BME280;59263;48.160;11.752;2023-12-07T11:48:23;96198.41;;;2.07;100.00
71457;BME280;59263;48.160;11.752;2023-12-07T11:53:25;96192.09;;;2.14;100.00
71457;BME280;59263;48.160;11.752;2023-12-07T11:55:51;96190.53;;;2.28;100.00
71457;BME280;59263;48.160;11.752;2023-12-07T11:58:16;96179.31;;;2.14;100.00
71457;BME280;59263;48.160;11.752;2023-12-07T12:00:43;96194.81;;;2.11;100.00
71457;BME280;59263;48.160;11.752;2023-12-07T12:03:09;96186.56;;;2.06;100.00
71457;BME280;59263;48.160;11.752;2023-12-07T12:05:36;96186.72;;;2.03;100.00
71457;BME280;59263;48.160;11.752;2023-12-07T12:08:04;96185.91;;;2.18;100.00
71457;BME280;59263;48.160;11.752;2023-12-07T12:10:30;96162.53;;;2.10;100.00
71457;BME280;59263;48.160;11.752;2023-12-07T12:12:55;96175.69;;;2.18;100.00
71457;BME280;59263;48.160;11.752;2023-12-07T12:15:21;96171.44;;;2.19;100.00
71457;BME280;59263;48.160;11.752;2023-12-07T12:17:46;96168.28;;;2.30;100.00
71457;BME280;59263;48.160;11.752;2023-12-07T12:20:13;96171.25;;;2.22;100.00
71457;BME280;59263;48.160;11.752;2023-12-07T12:22:43;96164.59;;;2.20;100.00
71457;BME280;59263;48.160;11.752;2023-12-07T12:25:08;96156.78;;;2.23;100.00
71457;BME280;59263;48.160;11.752;2023-12-07T12:27:34;96140.47;;;2.09;100.00
71457;BME280;59263;48.160;11.752;2023-12-07T12:30:01;96154.88;;;2.10;100.00
71457;BME280;59263;48.160;11.752;2023-12-07T12:32:27;96168.47;;;2.11;100.00
71457;BME280;59263;48.160;11.752;2023-12-07T12:34:52;96151.50;;;2.10;100.00
71457;BME280;59263;48.160;11.752;2023-12-07T12:37:18;96141.47;;;2.07;100.00
71457;BME280;59263;48.160;11.752;2023-12-07T12:39:43;96143.94;;;2.08;100.00
71457;BME280;59263;48.160;11.752;2023-12-07T12:42:09;96134.63;;;2.07;100.00
71457;BME280;59263;48.160;11.752;2023-12-07T12:44:36;96140.38;;;2.11;100.00
71457;BME280;59263;48.160;11.752;2023-12-07T12:47:06;96148.78;;;2.13;100.00